ダブリン の空港の天気 - METARとTAF

ダブリン空港 ( EIDW / DUB ) - アイルランド ダブリン
飛行場実況気象(Metar)
観測時間06/25 14:00 IST (06/25 13:00 UTC)
風向・風速東南東 4m/s
視程10km以上
天気現象
なし
気温23℃
湿度44%
気圧1027hPa
METAREIDW 251300Z 11008KT CAVOK 23/10 Q1027 NOSIG
過去の天気等 Google飛行場航空写真 Wunderground天気予報

過去48時間のMETAR

飛行場予報(TAF)
発表時間: 6/25 12:00 IST (6/25 11:00 UTC)
予報対象時間: 25日13時 IST ~ 26日13時 IST
風向・風速東南東 5m/s
視程10km以上
なし
25日20時 IST ~ 25日22時 IST に徐々に
風向・風速不定 2m/s
26日3時 IST ~ 26日7時 IST に 確率 30% で一時的に
視程3000m
天気現象もや
TAF EIDW 251100Z 2512/2612 12010KT CAVOK
BECMG 2519/2521 VRB03KT
PROB30 TEMPO 2602/2606 3000 BR